createdAt,value
2022-09-17T00:01:33.399Z,4.50
2022-09-17T00:04:04.777Z,9.40
2022-09-17T00:06:36.456Z,6.40
2022-09-17T00:09:07.590Z,5.10
2022-09-17T00:11:38.628Z,6.10
2022-09-17T00:14:09.355Z,4.80
2022-09-17T00:16:40.511Z,4.20
2022-09-17T00:19:14.506Z,7.40
2022-09-17T00:21:42.846Z,5.50
2022-09-17T00:24:13.186Z,5.00
2022-09-17T00:26:40.986Z,4.80
2022-09-17T00:29:09.569Z,6.20
2022-09-17T00:31:37.592Z,6.40
2022-09-17T00:34:06.664Z,4.60
2022-09-17T00:36:36.748Z,4.60
2022-09-17T00:39:06.401Z,7.50
2022-09-17T00:41:35.698Z,6.10
2022-09-17T00:44:37.746Z,6.10
2022-09-17T00:47:12.693Z,5.30
2022-09-17T00:49:41.153Z,6.00
2022-09-17T00:52:18.435Z,6.00
2022-09-17T00:54:54.641Z,4.80
2022-09-17T00:57:24.174Z,5.40
2022-09-17T00:59:52.309Z,6.70
2022-09-17T01:02:20.728Z,4.90
2022-09-17T01:04:48.426Z,6.60
2022-09-17T01:07:53.607Z,4.50
2022-09-17T01:10:30.444Z,9.30
2022-09-17T01:13:30.465Z,7.70
2022-09-17T01:16:21.641Z,4.90
2022-09-17T01:18:58.362Z,3.90
2022-09-17T01:21:39.450Z,6.40
2022-09-17T01:24:39.556Z,6.00
2022-09-17T01:27:42.458Z,6.50
2022-09-17T01:30:22.419Z,7.20
2022-09-17T01:33:12.758Z,6.10
2022-09-17T01:36:12.391Z,5.70
2022-09-17T01:39:09.340Z,6.10
2022-09-17T01:41:45.763Z,5.20
2022-09-17T01:45:00.194Z,7.10
2022-09-17T01:47:37.538Z,6.20
2022-09-17T01:50:24.375Z,4.10
2022-09-17T01:52:55.693Z,4.80
2022-09-17T01:55:30.616Z,6.20
2022-09-17T01:58:08.760Z,8.00
2022-09-17T02:00:41.698Z,4.50
2022-09-17T02:03:24.946Z,5.00
2022-09-17T02:06:01.364Z,5.40
2022-09-17T02:08:40.104Z,5.10
2022-09-17T02:11:12.112Z,4.40
2022-09-17T02:13:56.341Z,5.10
2022-09-17T02:16:27.244Z,6.50
2022-09-17T02:18:55.106Z,7.90
2022-09-17T02:21:29.884Z,8.40
2022-09-17T02:24:26.784Z,4.60
2022-09-17T02:27:37.249Z,6.30
2022-09-17T02:30:06.431Z,5.50
2022-09-17T02:32:34.328Z,3.40
2022-09-17T02:35:02.273Z,5.70
2022-09-17T02:37:30.225Z,5.20
2022-09-17T02:39:58.170Z,4.30
2022-09-17T02:42:36.298Z,4.70
2022-09-17T02:45:03.918Z,5.30
2022-09-17T02:47:58.661Z,5.20
2022-09-17T02:50:36.277Z,5.60
2022-09-17T02:53:15.613Z,7.60
2022-09-17T02:56:03.658Z,6.70
2022-09-17T02:58:38.453Z,6.70
2022-09-17T03:01:16.510Z,8.70
2022-09-17T03:03:46.224Z,5.60
2022-09-17T03:06:14.274Z,6.10
2022-09-17T03:08:43.444Z,6.40
2022-09-17T03:11:15.770Z,4.90
2022-09-17T03:13:47.519Z,6.00
2022-09-17T03:16:15.335Z,6.60
2022-09-17T03:18:43.116Z,7.90
2022-09-17T03:21:13.264Z,5.10
2022-09-17T03:23:41.264Z,5.40
2022-09-17T03:26:09.622Z,6.80
2022-09-17T03:28:37.478Z,5.40
2022-09-17T03:31:06.192Z,7.60
2022-09-17T03:33:34.146Z,5.10
2022-09-17T03:36:02.310Z,4.10
2022-09-17T03:38:30.215Z,5.00
2022-09-17T03:40:59.793Z,5.90
2022-09-17T03:43:28.369Z,6.30
2022-09-17T03:45:56.819Z,6.30
2022-09-17T03:48:24.703Z,4.70
2022-09-17T03:50:52.547Z,5.40
2022-09-17T03:53:20.546Z,7.10
2022-09-17T03:55:48.281Z,6.30
2022-09-17T03:58:15.913Z,7.00
2022-09-17T04:00:44.385Z,6.10
2022-09-17T04:03:12.837Z,7.00
2022-09-17T04:05:41.057Z,6.50
2022-09-17T04:08:08.740Z,6.10
2022-09-17T04:10:36.497Z,7.30
2022-09-17T04:13:04.197Z,6.80
2022-09-17T04:15:31.987Z,5.60
2022-09-17T04:17:59.761Z,6.40
2022-09-17T04:20:28.784Z,4.50
2022-09-17T04:22:56.859Z,5.80
2022-09-17T04:25:24.671Z,5.80
2022-09-17T04:27:52.558Z,6.50
2022-09-17T04:30:20.354Z,7.10
2022-09-17T04:32:48.498Z,11.80
2022-09-17T04:35:16.529Z,7.90
2022-09-17T04:37:44.310Z,5.50
2022-09-17T04:40:12.372Z,5.40
2022-09-17T04:42:40.165Z,7.00
2022-09-17T04:45:08.412Z,4.50
2022-09-17T04:47:39.827Z,4.90
2022-09-17T04:50:07.978Z,4.90
2022-09-17T04:52:35.688Z,5.60
2022-09-17T04:55:04.474Z,9.10
2022-09-17T04:57:32.241Z,6.20
2022-09-17T05:00:00.085Z,7.20
2022-09-17T05:02:28.016Z,5.30
2022-09-17T05:04:57.148Z,5.20
2022-09-17T05:07:24.855Z,4.80
2022-09-17T05:09:53.466Z,7.60
2022-09-17T05:12:21.121Z,7.50
2022-09-17T05:14:48.943Z,6.30
2022-09-17T05:17:16.784Z,5.70
2022-09-17T05:19:44.612Z,6.20
2022-09-17T05:22:12.511Z,5.40
2022-09-17T05:24:40.376Z,5.40
2022-09-17T05:27:08.675Z,5.40
2022-09-17T05:29:37.078Z,5.30
2022-09-17T05:32:04.982Z,9.20
2022-09-17T05:34:33.119Z,7.60
2022-09-17T05:37:00.921Z,6.80
2022-09-17T05:39:29.516Z,6.40
2022-09-17T05:42:00.260Z,5.60
2022-09-17T05:44:28.252Z,5.50
2022-09-17T05:46:56.318Z,6.70
2022-09-17T05:49:24.137Z,5.60
2022-09-17T05:51:52.141Z,5.20
2022-09-17T05:54:20.096Z,5.20
2022-09-17T05:56:47.980Z,5.10
2022-09-17T05:59:16.020Z,4.40
2022-09-17T06:01:45.079Z,8.40
2022-09-17T06:04:14.377Z,5.70
2022-09-17T06:06:42.085Z,4.70
2022-09-17T06:09:10.583Z,4.70
2022-09-17T06:11:38.565Z,4.50
2022-09-17T06:14:06.381Z,5.40
2022-09-17T06:16:34.723Z,6.70
2022-09-17T06:19:04.035Z,7.30
2022-09-17T06:21:33.029Z,8.60
2022-09-17T06:24:01.888Z,5.70
2022-09-17T06:26:29.892Z,6.30
2022-09-17T06:29:01.192Z,4.60
2022-09-17T06:31:29.140Z,4.70
2022-09-17T06:33:59.651Z,5.00
2022-09-17T06:36:27.521Z,5.10
2022-09-17T06:38:55.341Z,7.70
2022-09-17T06:41:23.191Z,5.30
2022-09-17T06:43:54.481Z,3.40
2022-09-17T06:46:23.666Z,5.90
2022-09-17T06:48:51.767Z,4.90
2022-09-17T06:51:19.965Z,4.60
2022-09-17T06:53:48.931Z,5.50
2022-09-17T06:56:17.539Z,5.30
2022-09-17T06:58:45.441Z,4.50
2022-09-17T07:01:14.346Z,9.00
2022-09-17T07:03:43.644Z,4.50
2022-09-17T07:06:12.820Z,4.60
2022-09-17T07:08:41.743Z,7.00
2022-09-17T07:11:09.703Z,4.50
2022-09-17T07:13:37.557Z,5.90
2022-09-17T07:16:06.661Z,5.60
2022-09-17T07:18:34.687Z,8.30
2022-09-17T07:21:05.451Z,6.00
2022-09-17T07:23:35.155Z,5.20
2022-09-17T07:26:09.314Z,6.80
2022-09-17T07:28:39.573Z,7.20
2022-09-17T07:31:11.282Z,5.30
2022-09-17T07:33:42.643Z,5.50
2022-09-17T07:36:13.393Z,5.40
2022-09-17T07:38:41.180Z,5.30
2022-09-17T07:41:14.518Z,6.60
2022-09-17T07:43:43.745Z,6.50
2022-09-17T07:46:17.866Z,5.30
2022-09-17T07:48:47.063Z,5.10
2022-09-17T07:51:28.773Z,5.70
2022-09-17T07:53:59.181Z,4.20
2022-09-17T07:56:28.591Z,5.70
2022-09-17T07:58:57.002Z,6.40
2022-09-17T08:01:25.095Z,6.40
2022-09-17T08:03:54.263Z,5.50
2022-09-17T08:06:26.367Z,4.90
2022-09-17T08:08:59.072Z,5.00
2022-09-17T08:11:52.207Z,5.20
2022-09-17T08:14:17.574Z,5.60
2022-09-17T08:16:47.704Z,4.50
2022-09-17T08:19:15.729Z,4.20
2022-09-17T08:21:43.662Z,4.00
2022-09-17T08:24:11.547Z,4.20
2022-09-17T08:26:44.065Z,3.70
2022-09-17T08:29:20.438Z,4.40
2022-09-17T08:31:48.361Z,5.60
2022-09-17T08:34:16.245Z,3.90
2022-09-17T08:36:44.209Z,5.30
2022-09-17T08:39:12.392Z,5.60
2022-09-17T08:41:40.317Z,4.90
2022-09-17T08:44:19.002Z,4.20
2022-09-17T08:47:14.987Z,4.70
2022-09-17T08:49:57.067Z,4.10
2022-09-17T08:53:06.720Z,4.60
2022-09-17T08:56:02.628Z,2.70
2022-09-17T08:58:50.889Z,4.70
2022-09-17T09:01:38.220Z,5.00
2022-09-17T09:04:21.845Z,5.50
2022-09-17T09:06:55.097Z,4.10
2022-09-17T09:09:28.562Z,4.10
2022-09-17T09:12:24.710Z,4.50
2022-09-17T09:15:02.334Z,4.60
2022-09-17T09:17:39.046Z,3.70
2022-09-17T09:20:16.841Z,5.00
2022-09-17T09:22:50.791Z,4.50
2022-09-17T09:25:27.386Z,2.70
2022-09-17T09:28:04.410Z,3.60
2022-09-17T09:31:33.936Z,2.90
2022-09-17T09:34:04.193Z,4.00
2022-09-17T09:36:33.926Z,4.10
2022-09-17T09:39:17.971Z,6.10
2022-09-17T09:42:00.908Z,3.40
2022-09-17T09:44:28.832Z,2.90
2022-09-17T09:47:08.452Z,3.50
2022-09-17T09:50:01.418Z,3.80
2022-09-17T09:53:17.381Z,4.80
2022-09-17T09:56:05.509Z,5.20
2022-09-17T09:58:41.435Z,3.20
2022-09-17T10:01:17.885Z,2.50
2022-09-17T10:03:47.415Z,3.70
2022-09-17T10:06:17.366Z,5.70
2022-09-17T10:09:05.451Z,5.20
2022-09-17T10:11:33.812Z,5.20
2022-09-17T10:14:35.482Z,4.00
2022-09-17T10:17:23.964Z,2.60
2022-09-17T10:20:12.070Z,4.00
2022-09-17T10:22:47.820Z,4.40
2022-09-17T10:25:29.684Z,2.70
2022-09-17T10:28:01.520Z,2.50
2022-09-17T10:30:29.962Z,3.60
2022-09-17T10:33:13.005Z,4.10
2022-09-17T10:35:59.336Z,3.30
2022-09-17T10:38:33.214Z,5.50
2022-09-17T10:41:13.528Z,2.60
2022-09-17T10:43:42.132Z,3.50
2022-09-17T10:46:15.440Z,4.00
2022-09-17T10:48:51.122Z,3.80
2022-09-17T10:51:26.460Z,4.90
2022-09-17T10:54:08.894Z,2.80
2022-09-17T10:56:40.316Z,5.10
2022-09-17T10:59:34.532Z,1.90
2022-09-17T11:02:36.030Z,2.20
2022-09-17T11:05:41.786Z,2.80
2022-09-17T11:08:38.923Z,3.10
2022-09-17T11:11:11.758Z,4.30
2022-09-17T11:14:01.292Z,2.20
2022-09-17T11:16:35.049Z,3.00
2022-09-17T11:19:40.763Z,3.40
2022-09-17T11:22:33.075Z,4.80
2022-09-17T11:25:24.079Z,2.50
2022-09-17T11:28:10.277Z,4.40
2022-09-17T11:31:21.713Z,2.70
2022-09-17T11:34:14.749Z,5.00
2022-09-17T11:37:11.274Z,2.30
2022-09-17T11:40:04.588Z,2.80
2022-09-17T11:42:38.852Z,2.70
2022-09-17T11:45:15.314Z,3.00
2022-09-17T11:47:49.945Z,3.40
2022-09-17T11:50:27.954Z,2.80
2022-09-17T11:53:01.760Z,3.30
2022-09-17T11:55:32.665Z,3.70
2022-09-17T11:58:08.636Z,3.40
2022-09-17T12:00:44.609Z,2.60
2022-09-17T12:03:26.018Z,3.50
2022-09-17T12:06:03.829Z,2.90
2022-09-17T12:08:44.646Z,5.50
2022-09-17T12:11:27.525Z,4.80
2022-09-17T12:14:01.673Z,3.80
2022-09-17T12:16:36.754Z,3.40
2022-09-17T12:19:41.269Z,3.20
2022-09-17T12:22:11.843Z,4.30
2022-09-17T12:24:40.655Z,4.30
2022-09-17T12:27:38.176Z,3.70
2022-09-17T12:30:23.012Z,3.60
2022-09-17T12:33:45.475Z,3.10
2022-09-17T12:36:35.702Z,5.30
2022-09-17T12:39:28.425Z,4.70
2022-09-17T12:42:26.267Z,2.60
2022-09-17T12:45:00.157Z,5.00
2022-09-17T12:47:33.639Z,4.10
2022-09-17T12:50:02.103Z,3.60
2022-09-17T12:52:48.349Z,4.70
2022-09-17T12:55:40.279Z,4.00
2022-09-17T12:58:23.502Z,2.60
2022-09-17T13:00:59.598Z,3.60
2022-09-17T13:03:33.067Z,3.80
2022-09-17T13:06:11.342Z,2.80
2022-09-17T13:08:57.542Z,3.10
2022-09-17T13:11:55.159Z,5.50
2022-09-17T13:15:07.517Z,4.00
2022-09-17T13:17:38.246Z,3.50
2022-09-17T13:20:14.009Z,4.10
2022-09-17T13:22:51.155Z,4.50
2022-09-17T13:25:21.727Z,4.50
2022-09-17T13:27:52.248Z,3.90
2022-09-17T13:30:21.169Z,3.90
2022-09-17T13:32:51.740Z,3.40
2022-09-17T13:35:22.651Z,4.10
2022-09-17T13:37:53.290Z,4.20
2022-09-17T13:40:28.124Z,3.90
2022-09-17T13:43:21.549Z,3.70
2022-09-17T13:46:01.426Z,3.20
2022-09-17T13:48:32.619Z,4.00
2022-09-17T13:51:32.338Z,4.80
2022-09-17T13:54:06.684Z,5.10
2022-09-17T13:56:51.101Z,3.80
2022-09-17T13:59:19.191Z,3.90
2022-09-17T14:02:04.222Z,4.10
2022-09-17T14:04:47.128Z,3.50
2022-09-17T14:07:21.277Z,4.70
2022-09-17T14:09:54.778Z,6.20
2022-09-17T14:12:48.896Z,6.40
2022-09-17T14:15:34.446Z,4.40
2022-09-17T14:18:23.063Z,4.90
2022-09-17T14:20:53.756Z,5.00
2022-09-17T14:23:21.696Z,5.30
2022-09-17T14:25:55.227Z,5.80
2022-09-17T14:28:29.608Z,4.60
2022-09-17T14:30:58.141Z,5.00
2022-09-17T14:33:32.160Z,3.60
2022-09-17T14:36:11.575Z,5.80
2022-09-17T14:38:44.477Z,3.50
2022-09-17T14:41:12.256Z,3.90
2022-09-17T14:44:01.326Z,5.20
2022-09-17T14:46:33.545Z,4.60
2022-09-17T14:49:23.534Z,6.40
2022-09-17T14:51:53.554Z,5.80
2022-09-17T14:54:24.970Z,6.10
2022-09-17T14:57:02.141Z,5.40
2022-09-17T14:59:42.213Z,5.50
2022-09-17T15:02:29.059Z,6.10
2022-09-17T15:04:57.587Z,6.10
2022-09-17T15:07:26.548Z,6.90
2022-09-17T15:09:55.662Z,6.70
2022-09-17T15:12:29.537Z,6.80
2022-09-17T15:14:58.474Z,6.10
2022-09-17T15:17:26.412Z,7.40
2022-09-17T15:19:58.438Z,9.30
2022-09-17T15:22:37.097Z,7.10
2022-09-17T15:25:10.629Z,8.10
2022-09-17T15:27:42.705Z,7.40
2022-09-17T15:30:20.387Z,7.20
2022-09-17T15:32:51.033Z,7.90
2022-09-17T15:35:39.688Z,6.90
2022-09-17T15:38:28.252Z,7.90
2022-09-17T15:41:11.174Z,7.80
2022-09-17T15:43:41.435Z,7.40
2022-09-17T15:46:28.864Z,6.60
2022-09-17T15:48:59.422Z,7.00
2022-09-17T15:51:33.582Z,6.80
2022-09-17T15:54:05.107Z,7.20
2022-09-17T15:56:37.428Z,8.20
2022-09-17T15:59:24.446Z,9.80
2022-09-17T16:01:55.792Z,12.30
2022-09-17T16:04:28.183Z,10.70
2022-09-17T16:07:06.292Z,10.40
2022-09-17T16:09:51.280Z,10.40
2022-09-17T16:12:22.464Z,10.70
2022-09-17T16:14:55.540Z,9.60
2022-09-17T16:17:23.791Z,10.90
2022-09-17T16:19:51.729Z,10.60
2022-09-17T16:22:19.591Z,10.40
2022-09-17T16:24:47.384Z,8.90
2022-09-17T16:27:20.328Z,8.50
2022-09-17T16:29:51.117Z,8.50
2022-09-17T16:32:20.222Z,8.80
2022-09-17T16:34:48.205Z,10.20
2022-09-17T16:37:18.729Z,9.40
2022-09-17T16:39:46.623Z,8.80
2022-09-17T16:42:14.697Z,9.40
2022-09-17T16:44:42.488Z,8.50
2022-09-17T16:47:10.327Z,11.70
2022-09-17T16:49:38.263Z,11.20
2022-09-17T16:52:06.160Z,10.80
2022-09-17T16:54:33.907Z,10.60
2022-09-17T16:57:01.770Z,8.20
2022-09-17T16:59:29.818Z,8.80
2022-09-17T17:01:58.017Z,9.80
2022-09-17T17:04:26.003Z,8.40
2022-09-17T17:06:54.186Z,10.60
2022-09-17T17:09:21.978Z,8.80
2022-09-17T17:11:50.925Z,10.40
2022-09-17T17:14:19.699Z,11.50
2022-09-17T17:16:47.480Z,9.90
2022-09-17T17:19:15.227Z,11.30
2022-09-17T17:21:47.015Z,12.50
2022-09-17T17:24:15.365Z,13.00
2022-09-17T17:26:43.645Z,12.00
2022-09-17T17:29:11.605Z,14.80
2022-09-17T17:31:39.493Z,14.00
2022-09-17T17:34:07.533Z,17.80
2022-09-17T17:36:35.830Z,13.40
2022-09-17T17:39:04.226Z,12.50
2022-09-17T17:41:32.018Z,15.90
2022-09-17T17:43:59.872Z,14.90
2022-09-17T17:46:27.697Z,17.40
2022-09-17T17:48:55.649Z,16.50
2022-09-17T17:51:24.301Z,15.70
2022-09-17T17:53:52.226Z,16.60
2022-09-17T17:56:20.739Z,22.40
2022-09-17T17:58:48.718Z,17.10
2022-09-17T18:01:20.199Z,17.70
2022-09-17T18:03:49.953Z,18.20
2022-09-17T18:06:18.422Z,17.90
2022-09-17T18:08:46.263Z,18.80
2022-09-17T18:11:14.092Z,20.60
2022-09-17T18:13:42.042Z,19.70
2022-09-17T18:16:14.031Z,20.20
2022-09-17T18:18:45.119Z,19.80
2022-09-17T18:21:19.207Z,17.80
2022-09-17T18:23:47.547Z,17.40
2022-09-17T18:26:21.945Z,18.80
2022-09-17T18:28:50.725Z,16.10
2022-09-17T18:31:24.651Z,17.80
2022-09-17T18:34:13.724Z,18.70
2022-09-17T18:36:44.008Z,21.20
2022-09-17T18:42:03.328Z,20.90
2022-09-17T18:44:31.521Z,16.80
2022-09-17T18:46:59.463Z,19.60
2022-09-17T18:49:27.417Z,19.00
2022-09-17T18:51:55.422Z,19.50
2022-09-17T18:54:23.403Z,19.20
2022-09-17T18:56:51.284Z,20.40
2022-09-17T18:59:19.269Z,17.70
2022-09-17T19:01:47.307Z,18.90
2022-09-17T19:04:15.541Z,17.90
2022-09-17T19:06:43.908Z,21.70
2022-09-17T19:09:12.040Z,18.60
2022-09-17T19:11:39.871Z,18.80
2022-09-17T19:14:10.222Z,18.20
2022-09-17T19:16:38.007Z,21.10
2022-09-17T19:19:05.813Z,16.10
2022-09-17T19:21:33.856Z,15.40
2022-09-17T19:24:03.583Z,17.20
2022-09-17T19:26:31.465Z,16.90
2022-09-17T19:29:00.631Z,17.00
2022-09-17T19:31:29.271Z,20.30
2022-09-17T19:33:58.869Z,14.70
2022-09-17T19:36:27.376Z,14.30
2022-09-17T19:38:56.042Z,16.10
2022-09-17T19:41:24.036Z,17.00
2022-09-17T19:43:57.070Z,19.00
2022-09-17T19:46:26.591Z,17.50
2022-09-17T19:48:56.233Z,18.40
2022-09-17T19:51:25.982Z,17.60
2022-09-17T19:53:54.054Z,18.00
2022-09-17T19:56:26.938Z,18.40
2022-09-17T19:58:55.310Z,21.10
2022-09-17T20:01:23.396Z,18.30
2022-09-17T20:03:53.410Z,18.20
2022-09-17T20:06:24.201Z,16.90
2022-09-17T20:08:55.077Z,18.60
2022-09-17T20:11:25.523Z,19.90
2022-09-17T20:14:07.401Z,18.80
2022-09-17T20:16:37.266Z,22.00
2022-09-17T20:19:07.282Z,20.40
2022-09-17T20:21:35.500Z,21.10
2022-09-17T20:24:06.060Z,18.60
2022-09-17T20:26:34.896Z,17.90
2022-09-17T20:29:03.876Z,20.60
2022-09-17T20:31:32.374Z,18.10
2022-09-17T20:34:02.897Z,18.40
2022-09-17T20:36:36.330Z,17.60
2022-09-17T20:39:19.455Z,19.90
2022-09-17T20:41:50.442Z,19.50
2022-09-17T20:44:18.504Z,16.30
2022-09-17T20:46:46.740Z,18.30
2022-09-17T20:49:14.655Z,17.40
2022-09-17T20:51:42.444Z,18.60
2022-09-17T20:54:10.281Z,17.20
2022-09-17T20:56:38.586Z,15.70
2022-09-17T20:59:18.643Z,15.00
2022-09-17T21:01:49.890Z,15.40
2022-09-17T21:04:19.995Z,15.10
2022-09-17T21:06:58.419Z,14.30
2022-09-17T21:09:26.334Z,15.10
2022-09-17T21:11:54.189Z,14.60
2022-09-17T21:14:22.128Z,14.10
2022-09-17T21:16:52.689Z,13.70
2022-09-17T21:19:23.544Z,14.90
2022-09-17T21:21:51.888Z,14.70
2022-09-17T21:24:19.628Z,16.60
2022-09-17T21:26:47.637Z,17.80
2022-09-17T21:29:15.502Z,16.30
2022-09-17T21:31:47.466Z,15.80
2022-09-17T21:34:16.645Z,15.70
2022-09-17T21:36:44.671Z,14.20
2022-09-17T21:39:18.208Z,13.20
2022-09-17T21:41:48.668Z,13.80
2022-09-17T21:44:16.612Z,15.50
2022-09-17T21:46:44.690Z,18.90
2022-09-17T21:49:13.569Z,17.40
2022-09-17T21:51:43.584Z,14.70
2022-09-17T21:54:17.313Z,16.10
2022-09-17T21:56:46.130Z,14.30
2022-09-17T21:59:16.445Z,14.60
2022-09-17T22:01:47.205Z,13.60
2022-09-17T22:04:18.318Z,13.50
2022-09-17T22:06:49.022Z,12.60
2022-09-17T22:09:20.779Z,14.20
2022-09-17T22:11:48.867Z,13.90
2022-09-17T22:14:19.804Z,15.10
2022-09-17T22:16:50.989Z,11.00
2022-09-17T22:19:20.720Z,11.90
2022-09-17T22:21:51.461Z,13.80
2022-09-17T22:24:22.153Z,15.50
2022-09-17T22:26:56.923Z,16.70
2022-09-17T22:29:28.052Z,17.30
2022-09-17T22:31:57.273Z,18.70
2022-09-17T22:34:26.537Z,18.50
2022-09-17T22:36:54.419Z,19.70
2022-09-17T22:39:22.571Z,16.50
2022-09-17T22:41:51.282Z,17.70
2022-09-17T22:44:20.253Z,16.20
2022-09-17T22:46:50.427Z,16.00
2022-09-17T22:49:19.391Z,12.20
2022-09-17T22:51:47.490Z,11.90
2022-09-17T22:54:17.047Z,9.10
2022-09-17T22:56:46.399Z,9.50
2022-09-17T22:59:14.154Z,10.20
2022-09-17T23:01:42.233Z,10.00
2022-09-17T23:04:10.584Z,8.90
2022-09-17T23:06:42.266Z,10.30
2022-09-17T23:09:13.560Z,10.60
2022-09-17T23:11:41.951Z,10.50
2022-09-17T23:14:12.371Z,10.80
2022-09-17T23:16:43.704Z,9.40
2022-09-17T23:19:13.580Z,10.00
2022-09-17T23:21:42.010Z,11.40
2022-09-17T23:24:15.078Z,9.90
2022-09-17T23:26:43.202Z,9.80
2022-09-17T23:29:10.968Z,11.50
2022-09-17T23:31:40.081Z,10.50
2022-09-17T23:34:08.023Z,11.20
2022-09-17T23:36:38.336Z,10.20
2022-09-17T23:39:09.315Z,8.00
2022-09-17T23:41:43.571Z,8.10
2022-09-17T23:44:15.655Z,8.80
2022-09-17T23:46:46.966Z,9.70
2022-09-17T23:49:15.888Z,11.40
2022-09-17T23:51:44.096Z,7.70
2022-09-17T23:54:12.333Z,11.30
2022-09-17T23:56:42.765Z,7.90
2022-09-17T23:59:13.729Z,8.80
